Time,TemperatureF,DewpointF,PressureIn,WindDirection,WindDirectionDegrees,WindSpeedMPH,WindSpeedGustMPH,Humidity,HourlyPrecipIn,Conditions,Clouds,dailyrainin,SoftwareType,DateUTC
2013-06-27 00:01:00,63.0,46.0,-100.00,ESE,105,9.0,20.0,54,-99.99,,,-99.99,,2013-06-27 08:01:00,
2013-06-27 00:11:00,63.0,46.0,-100.00,ESE,105,9.0,20.0,54,-99.99,,,-99.99,,2013-06-27 08:11:00,
2013-06-27 00:22:00,62.0,46.0,-100.00,ENE,68,3.0,5.0,55,-99.99,,,-99.99,,2013-06-27 08:22:00,
2013-06-27 00:34:00,62.0,46.0,-100.00,ENE,68,3.0,5.0,55,-99.99,,,-99.99,,2013-06-27 08:34:00,
2013-06-27 00:43:00,62.0,46.0,-100.00,East,89,8.0,14.0,56,-99.99,,,-99.99,,2013-06-27 08:43:00,
2013-06-27 00:52:00,61.0,46.0,-100.00,ENE,68,6.0,13.0,57,-99.99,,,-99.99,,2013-06-27 08:52:00,
2013-06-27 01:02:00,61.0,46.0,-100.00,ENE,68,6.0,13.0,57,-99.99,,,-99.99,,2013-06-27 09:02:00,
2013-06-27 01:11:00,60.0,46.0,-100.00,ENE,62,8.0,14.0,59,-99.99,,,-99.99,,2013-06-27 09:11:00,
2013-06-27 01:21:00,60.0,46.0,-100.00,ENE,62,8.0,14.0,59,-99.99,,,-99.99,,2013-06-27 09:21:00,
2013-06-27 01:33:00,60.0,46.0,-100.00,ENE,62,8.0,14.0,59,-99.99,,,-99.99,,2013-06-27 09:33:00,
2013-06-27 01:43:00,61.0,46.0,-100.00,East,86,2.0,8.0,58,-99.99,,,-99.99,,2013-06-27 09:43:00,
2013-06-27 01:53:00,62.0,47.0,-100.00,East,91,4.0,8.0,57,-99.99,,,-99.99,,2013-06-27 09:53:00,
2013-06-27 02:01:00,62.0,47.0,-100.00,East,91,4.0,8.0,57,-99.99,,,-99.99,,2013-06-27 10:01:00,
2013-06-27 02:11:00,61.0,46.0,-100.00,ESE,114,2.0,6.0,58,-99.99,,,-99.99,,2013-06-27 10:11:00,
2013-06-27 02:22:00,61.0,46.0,-100.00,ESE,114,2.0,6.0,58,-99.99,,,-99.99,,2013-06-27 10:22:00,
2013-06-27 02:32:00,61.0,46.0,-100.00,ESE,114,2.0,6.0,58,-99.99,,,-99.99,,2013-06-27 10:32:00,
2013-06-27 02:43:00,61.0,46.0,-100.00,ESE,114,2.0,6.0,58,-99.99,,,-99.99,,2013-06-27 10:43:00,
2013-06-27 02:54:00,61.0,46.0,-100.00,West,280,1.0,3.0,58,-99.99,,,-99.99,,2013-06-27 10:54:00,
2013-06-27 03:01:00,61.0,46.0,-100.00,West,280,1.0,3.0,58,-99.99,,,-99.99,,2013-06-27 11:01:00,
2013-06-27 03:11:00,61.0,46.0,-100.00,West,280,1.0,3.0,58,-99.99,,,-99.99,,2013-06-27 11:11:00,
2013-06-27 03:21:00,59.0,47.0,-100.00,South,183,3.0,5.0,65,-99.99,,,-99.99,,2013-06-27 11:21:00,
2013-06-27 03:33:00,59.0,47.0,-100.00,South,183,3.0,5.0,65,-99.99,,,-99.99,,2013-06-27 11:33:00,
2013-06-27 03:43:00,58.0,46.0,-100.00,SSW,213,4.0,5.0,65,-99.99,,,-99.99,,2013-06-27 11:43:00,
2013-06-27 03:52:00,57.0,47.0,-100.00,WSW,238,1.0,3.0,69,-99.99,,,-99.99,,2013-06-27 11:52:00,
2013-06-27 04:01:00,57.0,47.0,-100.00,WSW,238,1.0,3.0,69,-99.99,,,-99.99,,2013-06-27 12:01:00,
2013-06-27 04:11:00,57.0,47.0,-100.00,WSW,238,1.0,3.0,69,-99.99,,,-99.99,,2013-06-27 12:11:00,
2013-06-27 04:22:00,56.0,48.0,-100.00,ENE,71,2.0,4.0,74,-99.99,,,-99.99,,2013-06-27 12:22:00,
2013-06-27 04:34:00,56.0,48.0,-100.00,ENE,71,2.0,4.0,74,-99.99,,,-99.99,,2013-06-27 12:34:00,
2013-06-27 04:42:00,56.0,48.0,-100.00,ENE,71,2.0,4.0,74,-99.99,,,-99.99,,2013-06-27 12:42:00,
2013-06-27 05:01:00,55.0,48.0,-100.00,NE,38,3.0,6.0,77,-99.99,,,-99.99,,2013-06-27 13:01:00,
2013-06-27 05:11:00,54.0,48.0,-100.00,ENE,63,6.0,11.0,80,-99.99,,,-99.99,,2013-06-27 13:11:00,
2013-06-27 05:21:00,55.0,48.0,-100.00,ENE,61,6.0,12.0,78,-99.99,,,-99.99,,2013-06-27 13:21:00,
2013-06-27 05:22:00,55.0,49.0,-100.00,ENE,59,6.0,11.0,79,-99.99,,,-99.99,,2013-06-27 13:22:00,
2013-06-27 05:33:00,55.0,49.0,-100.00,ENE,59,6.0,11.0,79,-99.99,,,-99.99,,2013-06-27 13:33:00,
2013-06-27 05:43:00,55.0,48.0,-100.00,ENE,61,6.0,12.0,78,-99.99,,,-99.99,,2013-06-27 13:43:00,
2013-06-27 05:52:00,55.0,48.0,-100.00,ENE,61,6.0,12.0,78,-99.99,,,-99.99,,2013-06-27 13:52:00,
2013-06-27 06:01:00,55.0,48.0,-100.00,ENE,61,6.0,12.0,78,-99.99,,,-99.99,,2013-06-27 14:01:00,
2013-06-27 06:11:00,55.0,48.0,-100.00,ENE,61,6.0,12.0,78,-99.99,,,-99.99,,2013-06-27 14:11:00,
2013-06-27 06:43:00,55.0,48.0,-100.00,ENE,75,2.0,4.0,78,-99.99,,,-99.99,,2013-06-27 14:43:00,
2013-06-27 06:52:00,56.0,48.0,-100.00,South,171,0.0,2.0,75,-99.99,,,-99.99,,2013-06-27 14:52:00,
2013-06-27 07:33:00,56.0,49.0,-100.00,SSW,200,2.0,3.0,76,-99.99,,,-99.99,,2013-06-27 15:33:00,
2013-06-27 07:42:00,56.0,49.0,-100.00,SSW,200,2.0,3.0,76,-99.99,,,-99.99,,2013-06-27 15:42:00,
2013-06-27 07:52:00,56.0,49.0,-100.00,SSW,200,2.0,3.0,76,-99.99,,,-99.99,,2013-06-27 15:52:00,
2013-06-27 08:01:00,56.0,49.0,-100.00,SSW,200,2.0,3.0,76,-99.99,,,-99.99,,2013-06-27 16:01:00,
2013-06-27 08:11:00,54.0,50.0,-100.00,SW,220,1.0,3.0,85,-99.99,,,-99.99,,2013-06-27 16:11:00,
2013-06-27 08:23:00,54.0,50.0,-100.00,SW,220,1.0,3.0,85,-99.99,,,-99.99,,2013-06-27 16:23:00,
2013-06-27 08:33:00,54.0,50.0,-100.00,SW,220,1.0,3.0,85,-99.99,,,-99.99,,2013-06-27 16:33:00,
2013-06-27 08:43:00,53.0,50.0,-100.00,WNW,282,0.0,2.0,89,-99.99,,,-99.99,,2013-06-27 16:43:00,
2013-06-27 08:53:00,55.0,51.0,-100.00,NNE,24,3.0,6.0,87,-99.99,,,-99.99,,2013-06-27 16:53:00,
2013-06-27 09:01:00,55.0,51.0,-100.00,NNE,24,3.0,6.0,87,-99.99,,,-99.99,,2013-06-27 17:01:00,
2013-06-27 09:11:00,55.0,51.0,-100.00,NNE,24,3.0,6.0,87,-99.99,,,-99.99,,2013-06-27 17:11:00,
2013-06-27 09:22:00,55.0,51.0,-100.00,NNE,24,3.0,6.0,87,-99.99,,,-99.99,,2013-06-27 17:22:00,
2013-06-27 09:33:00,55.0,51.0,-100.00,NNE,24,3.0,6.0,87,-99.99,,,-99.99,,2013-06-27 17:33:00,
2013-06-27 09:43:00,57.0,52.0,-100.00,West,260,0.0,3.0,82,-99.99,,,-99.99,,2013-06-27 17:43:00,
2013-06-27 09:53:00,57.0,52.0,-100.00,West,260,0.0,3.0,82,-99.99,,,-99.99,,2013-06-27 17:53:00,
2013-06-27 10:01:00,57.0,52.0,-100.00,West,260,0.0,3.0,82,-99.99,,,-99.99,,2013-06-27 18:01:00,
2013-06-27 10:11:00,57.0,52.0,-100.00,West,260,0.0,3.0,82,-99.99,,,-99.99,,2013-06-27 18:11:00,
2013-06-27 11:33:00,57.0,51.0,-100.00,NW,325,1.0,4.0,80,-99.99,,,-99.99,,2013-06-27 19:33:00,
2013-06-27 11:42:00,58.0,52.0,-100.00,NNW,341,1.0,5.0,80,-99.99,,,-99.99,,2013-06-27 19:42:00,
2013-06-27 11:53:00,58.0,52.0,-100.00,NNW,341,1.0,5.0,80,-99.99,,,-99.99,,2013-06-27 19:53:00,
2013-06-27 12:01:00,58.0,52.0,-100.00,NNW,341,1.0,5.0,80,-99.99,,,-99.99,,2013-06-27 20:01:00,
2013-06-27 12:11:00,57.0,52.0,-100.00,West,277,1.0,4.0,82,-99.99,,,-99.99,,2013-06-27 20:11:00,
2013-06-27 12:45:00,54.0,51.0,-100.00,NNE,20,1.0,5.0,89,-99.99,,,-99.99,,2013-06-27 20:45:00,
2013-06-27 12:53:00,56.0,52.0,-100.00,SW,236,2.0,11.0,85,-99.99,,,-99.99,,2013-06-27 20:53:00,
2013-06-27 13:01:00,56.0,52.0,-100.00,SW,236,2.0,11.0,85,-99.99,,,-99.99,,2013-06-27 21:01:00,
2013-06-27 13:52:00,61.0,53.0,-100.00,West,266,3.0,9.0,75,-99.99,,,-99.99,,2013-06-27 21:52:00,
2013-06-27 14:04:00,61.0,53.0,-100.00,West,266,3.0,9.0,75,-99.99,,,-99.99,,2013-06-27 22:04:00,
2013-06-27 14:13:00,61.0,53.0,-100.00,West,266,3.0,9.0,75,-99.99,,,-99.99,,2013-06-27 22:13:00,
2013-06-27 14:22:00,61.0,53.0,-100.00,West,266,3.0,9.0,75,-99.99,,,-99.99,,2013-06-27 22:22:00,
2013-06-27 14:33:00,61.0,52.0,-100.00,NW,326,1.0,8.0,73,-99.99,,,-99.99,,2013-06-27 22:33:00,
2013-06-27 14:48:00,61.0,52.0,-100.00,NW,326,1.0,8.0,73,-99.99,,,-99.99,,2013-06-27 22:48:00,
2013-06-27 14:52:00,59.0,52.0,-100.00,West,262,3.0,8.0,79,-99.99,,,-99.99,,2013-06-27 22:52:00,
2013-06-27 14:57:00,59.0,52.0,-100.00,West,269,4.0,8.0,78,-99.99,,,-99.99,,2013-06-27 22:57:00,
2013-06-27 15:14:00,59.0,52.0,-100.00,West,262,3.0,8.0,79,-99.99,,,-99.99,,2013-06-27 23:14:00,
2013-06-27 15:23:00,59.0,52.0,-100.00,West,262,3.0,8.0,79,-99.99,,,-99.99,,2013-06-27 23:23:00,
2013-06-27 15:33:00,59.0,52.0,-100.00,West,262,3.0,8.0,79,-99.99,,,-99.99,,2013-06-27 23:33:00,
2013-06-27 15:43:00,59.0,52.0,-100.00,West,262,3.0,8.0,79,-99.99,,,-99.99,,2013-06-27 23:43:00,
2013-06-27 16:45:00,64.0,54.0,-100.00,WSW,253,4.0,10.0,69,-99.99,,,-99.99,,2013-06-28 00:45:00,
2013-06-27 16:56:00,63.0,53.0,-100.00,West,264,4.0,11.0,70,-99.99,,,-99.99,,2013-06-28 00:56:00,
2013-06-27 17:03:00,63.0,53.0,-100.00,West,264,4.0,11.0,70,-99.99,,,-99.99,,2013-06-28 01:03:00,
2013-06-27 17:12:00,63.0,54.0,-100.00,West,266,3.0,10.0,72,-99.99,,,-99.99,,2013-06-28 01:12:00,
2013-06-27 17:21:00,63.0,54.0,-100.00,NE,43,2.0,8.0,72,-99.99,,,-99.99,,2013-06-28 01:21:00,
2013-06-27 17:22:00,63.0,54.0,-100.00,West,266,3.0,10.0,72,-99.99,,,-99.99,,2013-06-28 01:22:00,
2013-06-27 17:33:00,63.0,54.0,-100.00,West,266,3.0,10.0,72,-99.99,,,-99.99,,2013-06-28 01:33:00,
2013-06-27 17:44:00,63.0,54.0,-100.00,NE,43,2.0,8.0,72,-99.99,,,-99.99,,2013-06-28 01:44:00,
2013-06-27 17:52:00,63.0,54.0,-100.00,NE,43,2.0,8.0,72,-99.99,,,-99.99,,2013-06-28 01:52:00,
2013-06-27 18:03:00,63.0,54.0,-100.00,NE,43,2.0,8.0,72,-99.99,,,-99.99,,2013-06-28 02:03:00,
2013-06-27 18:13:00,63.0,54.0,-100.00,NE,43,2.0,8.0,72,-99.99,,,-99.99,,2013-06-28 02:13:00,
2013-06-27 18:49:00,62.0,53.0,-100.00,West,270,5.0,12.0,72,-99.99,,,-99.99,,2013-06-28 02:49:00,
2013-06-27 18:56:00,62.0,53.0,-100.00,West,270,5.0,12.0,72,-99.99,,,-99.99,,2013-06-28 02:56:00,
2013-06-27 19:03:00,62.0,53.0,-100.00,West,270,5.0,12.0,72,-99.99,,,-99.99,,2013-06-28 03:03:00,
2013-06-27 19:12:00,63.0,54.0,-100.00,WSW,241,4.0,12.0,72,-99.99,,,-99.99,,2013-06-28 03:12:00,
2013-06-27 19:35:00,62.0,52.0,-100.00,WSW,256,6.0,13.0,71,-99.99,,,-99.99,,2013-06-28 03:35:00,
2013-06-27 19:43:00,62.0,53.0,-100.00,WSW,251,5.0,11.0,73,-99.99,,,-99.99,,2013-06-28 03:43:00,
2013-06-27 19:52:00,62.0,53.0,-100.00,WSW,245,4.0,11.0,72,-99.99,,,-99.99,,2013-06-28 03:52:00,
2013-06-27 20:01:00,62.0,53.0,-100.00,WSW,245,4.0,11.0,72,-99.99,,,-99.99,,2013-06-28 04:01:00,
2013-06-27 20:11:00,62.0,53.0,-100.00,WSW,245,4.0,11.0,72,-99.99,,,-99.99,,2013-06-28 04:11:00,
2013-06-27 20:22:00,61.0,53.0,-100.00,WNW,283,3.0,9.0,75,-99.99,,,-99.99,,2013-06-28 04:22:00,
2013-06-27 20:33:00,61.0,53.0,-100.00,WNW,283,3.0,9.0,75,-99.99,,,-99.99,,2013-06-28 04:33:00,
2013-06-27 20:43:00,61.0,54.0,-100.00,WSW,245,1.0,4.0,78,-99.99,,,-99.99,,2013-06-28 04:43:00,
2013-06-27 20:53:00,60.0,54.0,-100.00,West,268,0.0,2.0,81,-99.99,,,-99.99,,2013-06-28 04:53:00,
2013-06-27 21:01:00,60.0,54.0,-100.00,West,268,0.0,2.0,81,-99.99,,,-99.99,,2013-06-28 05:01:00,
2013-06-27 21:11:00,60.0,54.0,-100.00,West,268,0.0,2.0,81,-99.99,,,-99.99,,2013-06-28 05:11:00,
2013-06-27 21:22:00,61.0,54.0,-100.00,NE,40,3.0,8.0,78,-99.99,,,-99.99,,2013-06-28 05:22:00,
2013-06-27 21:33:00,61.0,54.0,-100.00,NE,40,3.0,8.0,78,-99.99,,,-99.99,,2013-06-28 05:33:00,
2013-06-27 21:43:00,61.0,54.0,-100.00,NE,40,3.0,8.0,78,-99.99,,,-99.99,,2013-06-28 05:43:00,
2013-06-27 21:53:00,60.0,53.0,-100.00,NE,52,0.0,3.0,79,-99.99,,,-99.99,,2013-06-28 05:53:00,
2013-06-27 22:01:00,60.0,53.0,-100.00,NE,52,0.0,3.0,79,-99.99,,,-99.99,,2013-06-28 06:01:00,
2013-06-27 22:12:00,60.0,53.0,-100.00,NE,52,0.0,3.0,79,-99.99,,,-99.99,,2013-06-28 06:12:00,
2013-06-27 22:33:00,60.0,53.0,-100.00,SSW,211,0.0,2.0,79,-99.99,,,-99.99,,2013-06-28 06:33:00,
2013-06-27 22:43:00,60.0,53.0,-100.00,SSW,211,0.0,2.0,79,-99.99,,,-99.99,,2013-06-28 06:43:00,
2013-06-27 22:52:00,60.0,53.0,-100.00,SSW,211,0.0,2.0,79,-99.99,,,-99.99,,2013-06-28 06:52:00,
2013-06-27 23:01:00,60.0,53.0,-100.00,SSW,211,0.0,2.0,79,-99.99,,,-99.99,,2013-06-28 07:01:00,
2013-06-27 23:11:00,57.0,53.0,-100.00,SW,233,6.0,13.0,87,-99.99,,,-99.99,,2013-06-28 07:11:00,
2013-06-27 23:22:00,57.0,53.0,-100.00,SW,233,6.0,13.0,87,-99.99,,,-99.99,,2013-06-28 07:22:00,
2013-06-27 23:33:00,57.0,53.0,-100.00,SW,233,6.0,13.0,87,-99.99,,,-99.99,,2013-06-28 07:33:00,
2013-06-27 23:42:00,57.0,53.0,-100.00,SW,233,6.0,13.0,87,-99.99,,,-99.99,,2013-06-28 07:42:00,
2013-06-27 23:52:00,57.0,52.0,-100.00,SSW,206,3.0,8.0,83,-99.99,,,-99.99,,2013-06-28 07:52:00,